Time;durP1;ratioP1;P1;durP2;ratioP2;P2;SDS_P1;SDS_P2;PMS_P1;PMS_P2;Temp;Humidity;BMP_temperature;BMP_pressure;BME280_temperature;BME280_humidity;BME280_pressure;Samples;Min_cycle;Max_cycle;Signal;HPM_P1;HPM_P2
2023/06/01 00:04:13;;;;;;;;;;;20.00;55.90;;;;;;21002511;28;20024;-54
2023/06/01 00:14:13;;;;;;;;;;;19.90;56.30;;;;;;21000871;28;19943;-54
2023/06/01 00:24:14;;;;;;;;;;;19.80;57.30;;;;;;20999490;28;19936;-55
2023/06/01 00:34:14;;;;;;;;;;;19.60;57.90;;;;;;20998486;28;19983;-54
2023/06/01 00:44:15;;;;;;;;;;;19.40;58.90;;;;;;20998612;28;19932;-56
2023/06/01 00:54:16;;;;;;;;;;;19.20;60.10;;;;;;20997932;28;20262;-55
2023/06/01 01:04:25;;;;;;;;;;;19.10;61.50;;;;;;20997044;28;19924;-56
2023/06/01 01:14:58;;;;;;;;;;;18.80;62.30;;;;;;20995711;28;19931;-55
2023/06/01 01:25:01;;;;;;;;;;;18.80;61.90;;;;;;20972125;28;20381;-55
2023/06/01 01:35:04;;;;;;;;;;;18.70;62.20;;;;;;20994702;28;20019;-54
2023/06/01 01:45:05;;;;;;;;;;;18.70;62.10;;;;;;20995205;28;19978;-56
2023/06/01 01:55:07;;;;;;;;;;;18.60;62.00;;;;;;20993965;28;19932;-54
2023/06/01 02:05:08;;;;;;;;;;;18.60;61.80;;;;;;20993565;28;19967;-54
2023/06/01 02:15:09;;;;;;;;;;;18.40;62.10;;;;;;20994520;28;19970;-54
2023/06/01 02:25:10;;;;;;;;;;;18.40;62.40;;;;;;20992932;28;19971;-54
2023/06/01 02:35:11;;;;;;;;;;;18.40;62.10;;;;;;20998739;28;20015;-55
2023/06/01 02:45:11;;;;;;;;;;;18.40;62.10;;;;;;21008124;28;19974;-54
2023/06/01 02:55:12;;;;;;;;;;;18.40;61.70;;;;;;21008759;28;20400;-55
2023/06/01 03:05:14;;;;;;;;;;;18.20;62.20;;;;;;21007624;28;19930;-55
2023/06/01 03:15:15;;;;;;;;;;;18.30;62.10;;;;;;21007177;28;20396;-56
2023/06/01 03:25:16;;;;;;;;;;;18.30;62.30;;;;;;21005024;28;19976;-55
2023/06/01 03:35:17;;;;;;;;;;;18.20;62.40;;;;;;21005915;28;20477;-54
2023/06/01 03:45:17;;;;;;;;;;;18.20;62.60;;;;;;21004120;28;19982;-55
2023/06/01 03:55:19;;;;;;;;;;;18.20;63.00;;;;;;21002823;28;19932;-54
2023/06/01 04:05:20;;;;;;;;;;;18.10;63.40;;;;;;21003740;28;20345;-55
2023/06/01 04:15:21;;;;;;;;;;;18.00;63.50;;;;;;21001542;28;19929;-55
2023/06/01 04:25:23;;;;;;;;;;;18.00;63.80;;;;;;21002872;28;20400;-55
2023/06/01 04:35:23;;;;;;;;;;;17.90;64.20;;;;;;21001228;28;19936;-56
2023/06/01 04:45:25;;;;;;;;;;;17.80;64.90;;;;;;20999205;28;19924;-55
2023/06/01 04:55:26;;;;;;;;;;;17.80;65.70;;;;;;20999046;28;19931;-54
2023/06/01 05:05:27;;;;;;;;;;;17.70;66.10;;;;;;20998063;28;20007;-54
2023/06/01 05:15:28;;;;;;;;;;;17.70;66.80;;;;;;20998016;28;19933;-56
2023/06/01 05:25:29;;;;;;;;;;;17.70;67.50;;;;;;20995197;28;20297;-56
2023/06/01 05:35:29;;;;;;;;;;;17.70;67.40;;;;;;20996061;28;19975;-55
2023/06/01 05:45:30;;;;;;;;;;;17.70;67.30;;;;;;20996373;28;19946;-55
2023/06/01 05:55:31;;;;;;;;;;;17.90;67.20;;;;;;20995135;28;20023;-55
2023/06/01 06:05:32;;;;;;;;;;;18.10;66.50;;;;;;20995666;28;20326;-56
2023/06/01 06:15:32;;;;;;;;;;;18.20;65.80;;;;;;21009533;28;19924;-56
2023/06/01 06:25:33;;;;;;;;;;;18.50;65.30;;;;;;21008927;28;19924;-55
2023/06/01 06:35:33;;;;;;;;;;;18.70;64.40;;;;;;21009447;28;19975;-54
2023/06/01 06:45:34;;;;;;;;;;;18.80;63.80;;;;;;21008916;28;19925;-54
2023/06/01 06:55:35;;;;;;;;;;;19.10;62.50;;;;;;21008679;28;19924;-56
2023/06/01 07:05:35;;;;;;;;;;;19.20;62.60;;;;;;21007936;28;19925;-57
2023/06/01 07:15:36;;;;;;;;;;;19.40;62.00;;;;;;21005806;28;19925;-56
2023/06/01 07:25:37;;;;;;;;;;;19.50;61.30;;;;;;21002579;28;19975;-56
2023/06/01 07:35:37;;;;;;;;;;;19.60;61.20;;;;;;21002759;28;20006;-55
2023/06/01 07:45:39;;;;;;;;;;;19.70;59.80;;;;;;21003978;28;20426;-55
2023/06/01 07:55:40;;;;;;;;;;;19.70;59.70;;;;;;21002889;28;19932;-55
2023/06/01 08:05:44;;;;;;;;;;;19.90;59.00;;;;;;21002488;28;20019;-55
2023/06/01 08:15:47;;;;;;;;;;;20.20;58.30;;;;;;21002257;28;20384;-56
2023/06/01 08:25:47;;;;;;;;;;;20.50;57.70;;;;;;21002210;28;19925;-55
2023/06/01 08:35:48;;;;;;;;;;;21.20;56.20;;;;;;21000855;28;20358;-55
2023/06/01 08:45:51;;;;;;;;;;;21.60;53.90;;;;;;20998946;28;19931;-56
2023/06/01 08:55:52;;;;;;;;;;;21.90;51.70;;;;;;20999475;28;20019;-56
2023/06/01 09:05:53;;;;;;;;;;;22.20;48.40;;;;;;20998606;28;20004;-55
2023/06/01 09:15:53;;;;;;;;;;;22.60;47.80;;;;;;20997860;28;19925;-56
2023/06/01 09:26:04;;;;;;;;;;;22.70;45.60;;;;;;20998177;28;20056;-55
2023/06/01 09:36:05;;;;;;;;;;;22.90;45.20;;;;;;20996622;28;19928;-57
2023/06/01 09:46:11;;;;;;;;;;;23.30;50.10;;;;;;20994969;28;19932;-61
2023/06/01 09:56:12;;;;;;;;;;;23.40;45.20;;;;;;20995200;28;20397;-61
2023/06/01 10:06:13;;;;;;;;;;;23.40;45.00;;;;;;20993281;28;19948;-60
2023/06/01 10:16:13;;;;;;;;;;;23.40;43.50;;;;;;20995195;28;19931;-60
2023/06/01 10:26:16;;;;;;;;;;;23.70;44.20;;;;;;20994763;28;19924;-59
2023/06/01 10:36:16;;;;;;;;;;;24.00;44.10;;;;;;20993390;28;19924;-58
2023/06/01 10:46:36;;;;;;;;;;;23.70;44.40;;;;;;20994043;28;20354;-57
2023/06/01 10:56:36;;;;;;;;;;;24.10;43.30;;;;;;20987204;28;19932;-56
2023/06/01 11:06:42;;;;;;;;;;;23.90;43.90;;;;;;21002226;28;19925;-59
2023/06/01 11:16:43;;;;;;;;;;;24.00;44.20;;;;;;20924245;28;19978;-56
2023/06/01 11:26:48;;;;;;;;;;;24.20;43.20;;;;;;20922145;28;19968;-57
2023/06/01 11:36:50;;;;;;;;;;;24.20;42.90;;;;;;20920146;28;20270;-56
2023/06/01 11:46:51;;;;;;;;;;;24.60;40.90;;;;;;20919384;28;20023;-57
2023/06/01 11:56:52;;;;;;;;;;;24.70;41.00;;;;;;20919241;28;20392;-58
2023/06/01 12:07:03;;;;;;;;;;;24.70;39.10;;;;;;20919366;28;20079;-57
2023/06/01 12:17:05;;;;;;;;;;;24.50;38.40;;;;;;20918435;28;19947;-56
2023/06/01 12:27:15;;;;;;;;;;;24.60;39.90;;;;;;20918813;28;19924;-58
2023/06/01 12:37:17;;;;;;;;;;;24.50;39.70;;;;;;20917749;28;19929;-57
2023/06/01 12:47:18;;;;;;;;;;;24.60;39.30;;;;;;20916363;28;20066;-56
2023/06/01 12:57:19;;;;;;;;;;;24.70;38.80;;;;;;20915898;28;19925;-57
2023/06/01 13:07:23;;;;;;;;;;;25.10;37.30;;;;;;20913794;28;20031;-58
2023/06/01 13:17:23;;;;;;;;;;;25.20;37.70;;;;;;20913648;28;19931;-57
2023/06/01 13:27:24;;;;;;;;;;;25.10;37.40;;;;;;20912873;28;19925;-58
2023/06/01 13:37:25;;;;;;;;;;;25.50;37.40;;;;;;20913159;28;20480;-57
2023/06/01 13:47:25;;;;;;;;;;;25.70;36.70;;;;;;20912211;28;19925;-56
2023/06/01 13:57:26;;;;;;;;;;;25.70;36.70;;;;;;20911426;28;19971;-57
2023/06/01 14:07:27;;;;;;;;;;;25.50;35.90;;;;;;20911463;28;20405;-57
2023/06/01 14:17:27;;;;;;;;;;;25.40;36.60;;;;;;20910662;28;20035;-58
2023/06/01 14:27:28;;;;;;;;;;;25.30;37.10;;;;;;20912077;28;19925;-57
2023/06/01 14:37:29;;;;;;;;;;;24.50;39.70;;;;;;20926910;28;19924;-58
2023/06/01 14:47:29;;;;;;;;;;;23.80;41.10;;;;;;20925648;28;19925;-57
2023/06/01 14:57:30;;;;;;;;;;;23.30;51.50;;;;;;20924857;28;20398;-58
2023/06/01 15:07:30;;;;;;;;;;;22.40;58.10;;;;;;20924359;28;19967;-57
2023/06/01 15:17:31;;;;;;;;;;;22.00;59.70;;;;;;20923893;28;19929;-58
2023/06/01 15:27:32;;;;;;;;;;;21.70;60.00;;;;;;20922186;28;19929;-58
2023/06/01 15:37:32;;;;;;;;;;;21.50;61.90;;;;;;20922418;28;19925;-59
2023/06/01 15:47:33;;;;;;;;;;;21.20;62.00;;;;;;20920576;28;19929;-58
2023/06/01 15:57:33;;;;;;;;;;;21.00;62.60;;;;;;20917729;28;19975;-57
2023/06/01 16:07:34;;;;;;;;;;;20.60;63.40;;;;;;20913529;28;19925;-57
2023/06/01 16:17:35;;;;;;;;;;;20.20;64.20;;;;;;20918928;28;20390;-57
2023/06/01 16:27:35;;;;;;;;;;;19.90;64.50;;;;;;20916745;28;19925;-58
2023/06/01 16:37:36;;;;;;;;;;;19.60;65.60;;;;;;20918110;28;19924;-56
2023/06/01 16:47:37;;;;;;;;;;;19.40;64.40;;;;;;20917686;28;19936;-55
2023/06/01 16:57:38;;;;;;;;;;;19.20;64.70;;;;;;20916072;28;20270;-57
2023/06/01 17:07:39;;;;;;;;;;;19.20;63.90;;;;;;20915133;28;19925;-57
2023/06/01 17:17:39;;;;;;;;;;;19.20;62.90;;;;;;20912203;28;19925;-56
2023/06/01 17:27:43;;;;;;;;;;;19.40;61.10;;;;;;20911823;28;19951;-56
2023/06/01 17:37:45;;;;;;;;;;;19.40;62.30;;;;;;20911133;28;20403;-56
2023/06/01 17:47:46;;;;;;;;;;;19.60;61.90;;;;;;20913131;28;19924;-56
2023/06/01 17:57:47;;;;;;;;;;;19.70;60.80;;;;;;20911742;28;20001;-57
2023/06/01 18:07:47;;;;;;;;;;;19.80;59.30;;;;;;20917799;28;19931;-56
2023/06/01 18:17:48;;;;;;;;;;;19.70;59.90;;;;;;20924906;28;20357;-63
2023/06/01 18:27:48;;;;;;;;;;;19.70;60.10;;;;;;20926293;28;19968;-61
2023/06/01 18:37:49;;;;;;;;;;;19.90;64.10;;;;;;20926169;28;19924;-60
2023/06/01 18:47:50;;;;;;;;;;;19.40;67.30;;;;;;20925782;28;19925;-60
2023/06/01 18:57:50;;;;;;;;;;;19.30;68.40;;;;;;20924676;28;19925;-60
2023/06/01 19:07:51;;;;;;;;;;;19.30;68.20;;;;;;20924468;28;19925;-62
2023/06/01 19:17:52;;;;;;;;;;;19.20;68.70;;;;;;20920210;28;19928;-61
2023/06/01 19:27:52;;;;;;;;;;;19.20;69.00;;;;;;20920636;28;20427;-56
2023/06/01 19:37:54;;;;;;;;;;;18.90;68.20;;;;;;20921759;28;20378;-57
2023/06/01 19:47:55;;;;;;;;;;;18.60;69.80;;;;;;20919363;28;19924;-57
2023/06/01 19:57:56;;;;;;;;;;;18.40;70.90;;;;;;20918419;28;19924;-58
2023/06/01 20:07:58;;;;;;;;;;;18.30;71.00;;;;;;20917579;28;20417;-59
2023/06/01 20:18:03;;;;;;;;;;;18.30;71.90;;;;;;20916796;28;20294;-60
2023/06/01 20:28:08;;;;;;;;;;;18.30;72.50;;;;;;20917305;28;20271;-58
2023/06/01 20:38:13;;;;;;;;;;;18.30;71.90;;;;;;20917049;28;19933;-58
2023/06/01 20:48:25;;;;;;;;;;;18.30;71.30;;;;;;20915755;28;19925;-57
2023/06/01 20:58:25;;;;;;;;;;;18.20;70.70;;;;;;20914792;28;19932;-57
2023/06/01 21:08:26;;;;;;;;;;;18.20;69.90;;;;;;20914251;28;19924;-58
2023/06/01 21:18:27;;;;;;;;;;;18.10;68.70;;;;;;20912762;28;19932;-58
2023/06/01 21:28:27;;;;;;;;;;;18.10;68.20;;;;;;20912165;28;19936;-57
2023/06/01 21:38:28;;;;;;;;;;;18.00;68.80;;;;;;20911742;28;20333;-58
2023/06/01 21:48:30;;;;;;;;;;;18.00;68.70;;;;;;20912314;28;19925;-56
2023/06/01 21:58:36;;;;;;;;;;;18.00;69.10;;;;;;20912294;28;19995;-57
2023/06/01 22:08:37;;;;;;;;;;;18.00;70.20;;;;;;20911634;28;19974;-57
2023/06/01 22:18:37;;;;;;;;;;;17.90;70.40;;;;;;20910600;28;20278;-58
2023/06/01 22:28:38;;;;;;;;;;;17.90;70.20;;;;;;20910083;28;19978;-57
2023/06/01 22:38:43;;;;;;;;;;;17.80;70.60;;;;;;20909021;28;20409;-57
2023/06/01 22:48:48;;;;;;;;;;;17.90;70.20;;;;;;20909802;28;20471;-57
2023/06/01 22:58:48;;;;;;;;;;;17.90;70.20;;;;;;20924168;28;20377;-57
2023/06/01 23:08:50;;;;;;;;;;;17.80;70.50;;;;;;20923896;28;19925;-57
2023/06/01 23:18:52;;;;;;;;;;;17.90;70.30;;;;;;20922812;28;19929;-57
2023/06/01 23:29:03;;;;;;;;;;;17.80;70.60;;;;;;20922335;28;19929;-58
2023/06/01 23:39:05;;;;;;;;;;;17.80;70.90;;;;;;20922261;28;20408;-58
2023/06/01 23:49:06;;;;;;;;;;;17.70;70.90;;;;;;20919803;28;20007;-57
2023/06/01 23:59:07;;;;;;;;;;;17.60;71.40;;;;;;20920491;28;20365;-58
